createdAt,value
2023-01-27T00:00:28.554Z,97.52
2023-01-27T00:02:55.109Z,97.92
2023-01-27T00:05:22.162Z,98.08
2023-01-27T00:07:49.694Z,98.36
2023-01-27T00:10:19.077Z,98.37
2023-01-27T00:13:05.394Z,98.64
2023-01-27T00:15:33.443Z,99.20
2023-01-27T00:18:00.189Z,99.47
2023-01-27T00:20:45.584Z,99.72
2023-01-27T00:23:39.527Z,100.00
2023-01-27T00:26:08.820Z,100.00
2023-01-27T00:28:40.153Z,100.00
2023-01-27T00:31:27.880Z,100.00
2023-01-27T00:33:56.130Z,100.00
2023-01-27T00:36:23.047Z,100.00
2023-01-27T00:38:49.508Z,100.00
2023-01-27T00:41:19.338Z,100.00
2023-01-27T00:43:53.577Z,100.00
2023-01-27T00:46:22.141Z,100.00
2023-01-27T00:48:49.069Z,100.00
2023-01-27T00:51:15.914Z,100.00
2023-01-27T00:53:42.420Z,100.00
2023-01-27T00:56:09.822Z,100.00
2023-01-27T00:58:36.982Z,100.00
2023-01-27T01:01:05.962Z,100.00
2023-01-27T01:03:33.748Z,100.00
2023-01-27T01:06:07.528Z,100.00
2023-01-27T01:08:35.403Z,100.00
2023-01-27T01:11:03.898Z,100.00
2023-01-27T01:13:30.319Z,100.00
2023-01-27T01:15:57.366Z,100.00
2023-01-27T01:18:24.527Z,100.00
2023-01-27T01:20:50.985Z,100.00
2023-01-27T01:23:17.453Z,100.00
2023-01-27T01:25:52.739Z,100.00
2023-01-27T01:28:19.220Z,100.00
2023-01-27T01:30:45.936Z,100.00
2023-01-27T01:33:12.436Z,100.00
2023-01-27T01:35:39.469Z,100.00
2023-01-27T01:38:06.265Z,100.00
2023-01-27T01:40:33.153Z,100.00
2023-01-27T01:43:01.762Z,100.00
2023-01-27T01:45:35.672Z,100.00
2023-01-27T01:48:30.051Z,100.00
2023-01-27T01:51:08.305Z,100.00
2023-01-27T01:53:41.622Z,100.00
2023-01-27T01:56:13.736Z,100.00
2023-01-27T02:01:10.751Z,100.00
2023-01-27T02:03:41.598Z,100.00
2023-01-27T02:06:10.530Z,100.00
2023-01-27T02:08:43.765Z,100.00
2023-01-27T02:11:10.995Z,100.00
2023-01-27T02:13:39.183Z,100.00
2023-01-27T02:16:08.619Z,99.85
2023-01-27T02:18:35.217Z,99.38
2023-01-27T02:21:02.754Z,99.78
2023-01-27T02:23:44.395Z,99.16
2023-01-27T02:26:17.899Z,98.95
2023-01-27T02:28:44.879Z,99.29
2023-01-27T02:31:11.649Z,98.60
2023-01-27T02:33:38.549Z,98.48
2023-01-27T02:36:16.770Z,98.47
2023-01-27T02:38:47.237Z,98.40
2023-01-27T02:41:34.888Z,98.53
2023-01-27T02:44:01.825Z,98.82
2023-01-27T02:46:28.614Z,98.85
2023-01-27T02:48:58.076Z,99.13
2023-01-27T02:51:25.065Z,99.20
2023-01-27T02:53:51.662Z,99.25
2023-01-27T02:56:19.661Z,99.40
2023-01-27T02:58:46.668Z,99.66
2023-01-27T03:01:16.709Z,99.60
2023-01-27T03:03:47.476Z,99.50
2023-01-27T03:06:19.268Z,99.33
2023-01-27T03:08:45.802Z,98.25
2023-01-27T03:11:14.420Z,97.93
2023-01-27T03:13:40.837Z,97.36
2023-01-27T03:16:25.997Z,97.49
2023-01-27T03:18:56.374Z,97.03
2023-01-27T03:21:23.037Z,97.72
2023-01-27T03:23:49.560Z,97.78
2023-01-27T03:26:20.644Z,97.70
2023-01-27T03:29:11.915Z,98.22
2023-01-27T03:31:41.406Z,98.87
2023-01-27T03:34:09.460Z,99.15
2023-01-27T03:37:00.113Z,99.07
2023-01-27T03:39:45.550Z,99.44
2023-01-27T03:42:30.784Z,100.00
2023-01-27T03:45:16.481Z,100.00
2023-01-27T03:47:42.887Z,100.00
2023-01-27T03:50:11.132Z,100.00
2023-01-27T03:52:38.068Z,100.00
2023-01-27T03:55:04.833Z,100.00
2023-01-27T03:57:31.217Z,100.00
2023-01-27T03:59:59.270Z,100.00
2023-01-27T04:02:44.325Z,100.00
2023-01-27T04:05:29.520Z,100.00
2023-01-27T04:07:55.944Z,100.00
2023-01-27T04:10:22.350Z,100.00
2023-01-27T04:12:49.144Z,100.00
2023-01-27T04:15:17.276Z,100.00
2023-01-27T04:17:45.987Z,100.00
2023-01-27T04:20:12.878Z,100.00
2023-01-27T04:22:39.707Z,100.00
2023-01-27T04:25:06.868Z,100.00
2023-01-27T04:27:33.439Z,100.00
2023-01-27T04:30:00.360Z,100.00
2023-01-27T04:32:27.389Z,100.00
2023-01-27T04:34:54.152Z,100.00
2023-01-27T04:37:20.701Z,100.00
2023-01-27T04:39:47.372Z,100.00
2023-01-27T04:42:13.898Z,100.00
2023-01-27T04:44:40.353Z,100.00
2023-01-27T04:47:06.736Z,100.00
2023-01-27T04:49:33.110Z,100.00
2023-01-27T04:51:59.550Z,100.00
2023-01-27T04:54:26.022Z,100.00
2023-01-27T04:56:59.006Z,100.00
2023-01-27T04:59:25.635Z,100.00
2023-01-27T05:01:52.372Z,100.00
2023-01-27T05:04:18.832Z,100.00
2023-01-27T05:06:45.723Z,100.00
2023-01-27T05:09:12.066Z,100.00
2023-01-27T05:11:38.654Z,100.00
2023-01-27T05:14:05.095Z,100.00
2023-01-27T05:16:31.487Z,100.00
2023-01-27T05:18:57.954Z,100.00
2023-01-27T05:21:30.827Z,100.00
2023-01-27T05:23:57.400Z,100.00
2023-01-27T05:26:26.352Z,100.00
2023-01-27T05:28:54.492Z,100.00
2023-01-27T05:31:23.871Z,100.00
2023-01-27T05:33:52.910Z,100.00
2023-01-27T05:36:21.023Z,100.00
2023-01-27T05:38:47.951Z,100.00
2023-01-27T05:41:16.898Z,100.00
2023-01-27T05:43:44.848Z,100.00
2023-01-27T05:46:16.779Z,100.00
2023-01-27T05:48:45.882Z,100.00
2023-01-27T05:51:15.138Z,100.00
2023-01-27T05:53:43.131Z,100.00
2023-01-27T05:56:11.104Z,100.00
2023-01-27T05:58:39.071Z,100.00
2023-01-27T06:01:09.661Z,100.00
2023-01-27T06:03:36.593Z,100.00
2023-01-27T06:06:04.019Z,100.00
2023-01-27T06:08:30.885Z,100.00
2023-01-27T06:10:58.499Z,100.00
2023-01-27T06:13:25.430Z,100.00
2023-01-27T06:15:53.262Z,100.00
2023-01-27T06:18:19.735Z,100.00
2023-01-27T06:20:46.621Z,100.00
2023-01-27T06:23:15.732Z,100.00
2023-01-27T06:25:45.374Z,100.00
2023-01-27T06:28:19.950Z,100.00
2023-01-27T06:30:53.701Z,100.00
2023-01-27T06:33:20.098Z,100.00
2023-01-27T06:35:47.189Z,100.00
2023-01-27T06:38:15.342Z,100.00
2023-01-27T06:40:42.655Z,100.00
2023-01-27T06:43:14.280Z,100.00
2023-01-27T06:45:41.240Z,100.00
2023-01-27T06:48:08.681Z,100.00
2023-01-27T06:50:36.168Z,100.00
2023-01-27T06:53:04.957Z,100.00
2023-01-27T06:55:32.454Z,100.00
2023-01-27T06:57:59.157Z,100.00
2023-01-27T07:00:25.933Z,100.00
2023-01-27T07:02:55.706Z,100.00
2023-01-27T07:05:22.461Z,100.00
2023-01-27T07:07:48.899Z,100.00
2023-01-27T07:10:15.946Z,100.00
2023-01-27T07:12:42.623Z,100.00
2023-01-27T07:15:10.493Z,100.00
2023-01-27T07:17:37.369Z,100.00
2023-01-27T07:20:06.287Z,100.00
2023-01-27T07:22:32.827Z,100.00
2023-01-27T07:24:59.403Z,100.00
2023-01-27T07:27:26.218Z,100.00
2023-01-27T07:29:52.703Z,100.00
2023-01-27T07:32:19.212Z,100.00
2023-01-27T07:34:45.609Z,100.00
2023-01-27T07:37:13.436Z,100.00
2023-01-27T07:39:39.829Z,100.00
2023-01-27T07:42:06.730Z,100.00
2023-01-27T07:44:33.364Z,100.00
2023-01-27T07:46:59.910Z,100.00
2023-01-27T07:49:27.526Z,100.00
2023-01-27T07:51:54.276Z,100.00
2023-01-27T07:54:20.876Z,100.00
2023-01-27T07:56:47.265Z,100.00
2023-01-27T07:59:13.797Z,100.00
2023-01-27T08:01:41.770Z,100.00
2023-01-27T08:04:08.288Z,100.00
2023-01-27T08:06:34.919Z,100.00
2023-01-27T08:09:01.423Z,100.00
2023-01-27T08:11:27.851Z,100.00
2023-01-27T08:13:54.196Z,100.00
2023-01-27T08:16:20.638Z,100.00
2023-01-27T08:18:47.056Z,100.00
2023-01-27T08:21:13.462Z,100.00
2023-01-27T08:23:40.327Z,100.00
2023-01-27T08:26:07.547Z,100.00
2023-01-27T08:28:36.416Z,100.00
2023-01-27T08:31:15.241Z,100.00
2023-01-27T08:33:43.563Z,100.00
2023-01-27T08:36:14.083Z,100.00
2023-01-27T08:38:41.111Z,100.00
2023-01-27T08:41:10.830Z,100.00
2023-01-27T08:43:37.295Z,100.00
2023-01-27T08:46:04.804Z,100.00
2023-01-27T08:48:32.063Z,100.00
2023-01-27T08:50:59.903Z,100.00
2023-01-27T08:53:27.346Z,100.00
2023-01-27T08:55:56.791Z,100.00
2023-01-27T08:58:24.111Z,100.00
2023-01-27T09:00:50.527Z,100.00
2023-01-27T09:03:17.388Z,100.00
2023-01-27T09:05:43.823Z,100.00
2023-01-27T09:08:10.781Z,100.00
2023-01-27T09:10:39.188Z,100.00
2023-01-27T09:13:06.370Z,100.00
2023-01-27T09:15:33.914Z,100.00
2023-01-27T09:18:00.289Z,100.00
2023-01-27T09:20:26.649Z,100.00
2023-01-27T09:22:55.014Z,100.00
2023-01-27T09:25:21.636Z,100.00
2023-01-27T09:27:48.064Z,100.00
2023-01-27T09:30:16.499Z,100.00
2023-01-27T09:32:43.069Z,100.00
2023-01-27T09:35:09.874Z,100.00
2023-01-27T09:37:42.331Z,100.00
2023-01-27T09:40:32.847Z,100.00
2023-01-27T09:43:07.975Z,100.00
2023-01-27T09:45:51.582Z,100.00
2023-01-27T09:48:40.411Z,100.00
2023-01-27T09:51:21.598Z,100.00
2023-01-27T09:54:02.295Z,100.00
2023-01-27T09:57:09.163Z,100.00
2023-01-27T09:59:58.090Z,100.00
2023-01-27T10:02:48.495Z,100.00
2023-01-27T10:05:44.751Z,100.00
2023-01-27T10:08:43.476Z,100.00
2023-01-27T10:11:19.682Z,100.00
2023-01-27T10:13:59.625Z,100.00
2023-01-27T10:16:48.851Z,100.00
2023-01-27T10:19:34.851Z,100.00
2023-01-27T10:22:19.912Z,100.00
2023-01-27T10:25:00.296Z,100.00
2023-01-27T10:27:35.674Z,100.00
2023-01-27T10:30:17.237Z,100.00
2023-01-27T10:33:20.322Z,100.00
2023-01-27T10:36:03.028Z,100.00
2023-01-27T10:38:45.910Z,100.00
2023-01-27T10:41:39.765Z,100.00
2023-01-27T10:44:29.297Z,100.00
2023-01-27T10:47:11.628Z,100.00
2023-01-27T10:49:53.619Z,100.00
2023-01-27T10:52:26.511Z,100.00
2023-01-27T10:55:25.619Z,100.00
2023-01-27T10:58:04.555Z,100.00
2023-01-27T11:01:13.262Z,100.00
2023-01-27T11:03:38.083Z,100.00
2023-01-27T11:06:11.133Z,100.00
2023-01-27T11:08:42.829Z,100.00
2023-01-27T11:11:28.848Z,100.00
2023-01-27T11:14:22.639Z,100.00
2023-01-27T11:16:52.756Z,100.00
2023-01-27T11:19:29.206Z,100.00
2023-01-27T11:22:07.121Z,100.00
2023-01-27T11:24:45.597Z,100.00
2023-01-27T11:27:35.107Z,100.00
2023-01-27T11:30:16.954Z,100.00
2023-01-27T11:32:58.774Z,100.00
2023-01-27T11:35:25.301Z,100.00
2023-01-27T11:37:54.828Z,100.00
2023-01-27T11:40:35.662Z,100.00
2023-01-27T11:43:03.264Z,100.00
2023-01-27T11:45:35.775Z,100.00
2023-01-27T11:48:07.675Z,100.00
2023-01-27T11:50:36.120Z,100.00
2023-01-27T11:53:24.298Z,100.00
2023-01-27T11:56:01.980Z,100.00
2023-01-27T11:58:40.883Z,99.94
2023-01-27T12:01:16.182Z,98.74
2023-01-27T12:03:52.649Z,98.27
2023-01-27T12:06:32.722Z,100.00
2023-01-27T12:08:59.171Z,97.09
2023-01-27T12:11:26.959Z,97.59
2023-01-27T12:13:56.485Z,98.38
2023-01-27T12:16:50.714Z,97.58
2023-01-27T12:19:32.137Z,97.77
2023-01-27T12:22:02.761Z,96.94
2023-01-27T12:24:40.136Z,95.98
2023-01-27T12:27:07.531Z,95.65
2023-01-27T12:29:43.627Z,95.57
2023-01-27T12:32:32.866Z,95.89
2023-01-27T12:35:01.839Z,95.38
2023-01-27T12:37:36.560Z,95.55
2023-01-27T12:40:06.149Z,95.44
2023-01-27T12:42:43.437Z,94.66
2023-01-27T12:45:26.765Z,93.88
2023-01-27T12:48:16.885Z,94.11
2023-01-27T12:50:55.118Z,93.37
2023-01-27T12:53:27.657Z,93.19
2023-01-27T12:56:16.640Z,93.09
2023-01-27T12:58:45.981Z,92.91
2023-01-27T13:01:43.984Z,92.49
2023-01-27T13:04:22.021Z,93.06
2023-01-27T13:06:56.318Z,92.48
2023-01-27T13:09:26.231Z,91.91
2023-01-27T13:11:54.955Z,91.42
2023-01-27T13:14:21.818Z,91.09
2023-01-27T13:16:56.358Z,90.53
2023-01-27T13:19:35.881Z,90.19
2023-01-27T13:22:03.933Z,90.33
2023-01-27T13:24:41.341Z,89.58
2023-01-27T13:27:15.728Z,90.45
2023-01-27T13:29:48.099Z,90.56
2023-01-27T13:32:23.293Z,90.81
2023-01-27T13:35:05.349Z,90.85
2023-01-27T13:37:37.244Z,90.56
2023-01-27T13:40:18.780Z,91.09
2023-01-27T13:42:57.715Z,91.23
2023-01-27T13:45:44.242Z,90.66
2023-01-27T13:48:13.716Z,90.29
2023-01-27T13:50:44.804Z,90.35
2023-01-27T13:53:14.858Z,90.80
2023-01-27T13:56:20.584Z,90.90
2023-01-27T13:59:05.244Z,90.22
2023-01-27T14:02:11.189Z,89.72
2023-01-27T14:04:56.853Z,89.89
2023-01-27T14:07:42.121Z,90.23
2023-01-27T14:10:27.521Z,90.25
2023-01-27T14:13:43.986Z,90.26
2023-01-27T14:16:24.497Z,90.11
2023-01-27T14:19:07.867Z,89.27
2023-01-27T14:21:52.031Z,88.86
2023-01-27T14:24:49.345Z,89.11
2023-01-27T14:27:30.042Z,89.57
2023-01-27T14:30:02.472Z,88.67
2023-01-27T14:32:46.340Z,88.74
2023-01-27T14:35:35.656Z,88.77
2023-01-27T14:38:38.212Z,88.98
2023-01-27T14:41:14.077Z,88.75
2023-01-27T14:43:59.401Z,88.54
2023-01-27T14:46:39.824Z,89.19
2023-01-27T14:49:30.976Z,89.62
2023-01-27T14:52:13.914Z,89.28
2023-01-27T14:54:53.515Z,88.83
2023-01-27T14:57:27.346Z,88.53
2023-01-27T15:00:08.742Z,89.15
2023-01-27T15:02:48.247Z,88.50
2023-01-27T15:05:26.250Z,88.39
2023-01-27T15:08:18.035Z,88.71
2023-01-27T15:11:11.560Z,89.13
2023-01-27T15:13:47.214Z,88.52
2023-01-27T15:16:23.113Z,89.04
2023-01-27T15:18:52.587Z,88.91
2023-01-27T15:21:34.567Z,88.48
2023-01-27T15:24:31.245Z,88.60
2023-01-27T15:26:58.603Z,88.72
2023-01-27T15:29:30.710Z,88.50
2023-01-27T15:32:27.884Z,88.46
2023-01-27T15:35:30.098Z,88.68
2023-01-27T15:38:05.197Z,88.86
2023-01-27T15:41:04.637Z,88.29
2023-01-27T15:43:32.075Z,87.92
2023-01-27T15:46:19.745Z,87.89
2023-01-27T15:48:47.623Z,88.06
2023-01-27T15:51:19.824Z,87.83
2023-01-27T15:53:52.409Z,87.70
2023-01-27T15:56:18.863Z,87.69
2023-01-27T15:58:53.490Z,87.44
2023-01-27T16:01:26.535Z,87.81
2023-01-27T16:04:05.882Z,88.39
2023-01-27T16:06:33.769Z,88.41
2023-01-27T16:09:07.659Z,88.45
2023-01-27T16:11:33.978Z,88.40
2023-01-27T16:14:12.413Z,88.39
2023-01-27T16:16:40.750Z,88.85
2023-01-27T16:19:11.145Z,88.88
2023-01-27T16:21:47.719Z,88.68
2023-01-27T16:24:35.966Z,88.45
2023-01-27T16:27:24.915Z,88.60
2023-01-27T16:29:58.541Z,89.21
2023-01-27T16:32:35.427Z,89.06
2023-01-27T16:35:14.195Z,88.66
2023-01-27T16:37:57.442Z,88.81
2023-01-27T16:40:24.809Z,88.09
2023-01-27T16:42:57.692Z,88.00
2023-01-27T16:45:33.406Z,88.66
2023-01-27T16:48:06.494Z,88.26
2023-01-27T16:50:41.450Z,88.33
2023-01-27T16:53:24.084Z,88.09
2023-01-27T16:56:00.409Z,87.98
2023-01-27T16:58:39.774Z,88.21
2023-01-27T17:01:21.784Z,88.01
2023-01-27T17:03:49.401Z,88.20
2023-01-27T17:06:17.387Z,88.20
2023-01-27T17:08:45.563Z,88.21
2023-01-27T17:11:20.851Z,88.13
2023-01-27T17:13:50.094Z,88.05
2023-01-27T17:16:34.274Z,88.01
2023-01-27T17:19:21.460Z,87.94
2023-01-27T17:21:55.517Z,87.82
2023-01-27T17:24:52.860Z,87.99
2023-01-27T17:27:37.821Z,88.73
2023-01-27T17:30:17.331Z,88.24
2023-01-27T17:32:49.289Z,88.18
2023-01-27T17:35:25.408Z,88.35
2023-01-27T17:37:51.968Z,88.14
2023-01-27T17:40:21.389Z,87.78
2023-01-27T17:42:49.175Z,87.98
2023-01-27T17:45:21.869Z,88.20
2023-01-27T17:47:48.961Z,88.47
2023-01-27T17:50:18.435Z,88.45
2023-01-27T17:52:52.325Z,88.85
2023-01-27T17:55:24.330Z,88.32
2023-01-27T17:58:04.332Z,88.68
2023-01-27T18:00:35.216Z,88.72
2023-01-27T18:03:23.941Z,88.68
2023-01-27T18:05:53.379Z,88.77
2023-01-27T18:08:22.070Z,89.09
2023-01-27T18:10:48.479Z,89.03
2023-01-27T18:13:17.904Z,89.11
2023-01-27T18:15:57.476Z,89.45
2023-01-27T18:18:27.981Z,89.09
2023-01-27T18:20:57.245Z,88.92
2023-01-27T18:23:28.571Z,89.01
2023-01-27T18:26:17.499Z,88.69
2023-01-27T18:28:45.781Z,88.94
2023-01-27T18:31:16.859Z,88.69
2023-01-27T18:33:44.035Z,88.80
2023-01-27T18:36:22.830Z,88.84
2023-01-27T18:38:50.924Z,88.55
2023-01-27T18:41:27.621Z,89.13
2023-01-27T18:43:54.259Z,89.03
2023-01-27T18:46:20.747Z,89.33
2023-01-27T18:48:47.282Z,89.50
2023-01-27T18:51:15.109Z,89.85
2023-01-27T18:53:41.833Z,89.19
2023-01-27T18:56:08.973Z,88.97
2023-01-27T18:58:36.219Z,89.00
2023-01-27T19:01:05.471Z,89.92
2023-01-27T19:03:34.535Z,89.69
2023-01-27T19:06:00.969Z,89.29
2023-01-27T19:08:27.411Z,89.37
2023-01-27T19:10:53.909Z,89.29
2023-01-27T19:13:20.406Z,88.90
2023-01-27T19:15:52.727Z,88.71
2023-01-27T19:18:28.784Z,88.72
2023-01-27T19:20:55.465Z,88.02
2023-01-27T19:23:22.135Z,87.81
2023-01-27T19:25:53.908Z,87.85
2023-01-27T19:28:38.296Z,87.28
2023-01-27T19:31:06.634Z,87.29
2023-01-27T19:33:34.604Z,86.95
2023-01-27T19:36:25.338Z,86.81
2023-01-27T19:39:20.435Z,86.24
2023-01-27T19:41:47.061Z,86.22
2023-01-27T19:44:15.185Z,86.57
2023-01-27T19:46:42.741Z,86.79
2023-01-27T19:49:19.664Z,86.88
2023-01-27T19:51:46.227Z,86.60
2023-01-27T19:54:12.613Z,86.34
2023-01-27T19:56:39.394Z,86.04
2023-01-27T19:59:05.909Z,86.46
2023-01-27T20:01:32.479Z,86.90
2023-01-27T20:03:58.975Z,86.74
2023-01-27T20:06:28.489Z,86.48
2023-01-27T20:08:59.762Z,86.72
2023-01-27T20:11:29.402Z,87.13
2023-01-27T20:13:55.914Z,86.83
2023-01-27T20:16:23.015Z,87.16
2023-01-27T20:18:50.679Z,87.38
2023-01-27T20:21:17.041Z,87.43
2023-01-27T20:23:43.462Z,87.24
2023-01-27T20:26:15.544Z,87.37
2023-01-27T20:28:42.527Z,87.49
2023-01-27T20:31:13.818Z,87.67
2023-01-27T20:33:40.497Z,87.87
2023-01-27T20:36:08.495Z,87.92
2023-01-27T20:38:35.341Z,87.86
2023-01-27T20:41:06.993Z,87.77
2023-01-27T20:43:35.522Z,87.87
2023-01-27T20:46:06.838Z,87.91
2023-01-27T20:48:33.580Z,87.83
2023-01-27T20:51:01.631Z,87.96
2023-01-27T20:53:31.559Z,88.41
2023-01-27T20:55:59.199Z,88.03
2023-01-27T20:58:29.557Z,87.50
2023-01-27T21:01:08.055Z,87.83
2023-01-27T21:03:35.622Z,87.81
2023-01-27T21:06:02.333Z,87.69
2023-01-27T21:08:28.867Z,87.45
2023-01-27T21:10:55.300Z,87.41
2023-01-27T21:13:21.774Z,86.84
2023-01-27T21:15:49.523Z,87.15
2023-01-27T21:18:17.222Z,86.53
2023-01-27T21:20:48.572Z,86.15
2023-01-27T21:23:15.389Z,86.43
2023-01-27T21:25:41.979Z,85.69
2023-01-27T21:28:08.466Z,85.13
2023-01-27T21:30:34.973Z,84.75
2023-01-27T21:33:01.395Z,84.95
2023-01-27T21:35:28.269Z,85.25
2023-01-27T21:37:54.652Z,85.45
2023-01-27T21:40:21.040Z,85.40
2023-01-27T21:43:05.966Z,85.23
2023-01-27T21:45:32.353Z,85.19
2023-01-27T21:47:58.760Z,84.81
2023-01-27T21:50:25.228Z,84.78
2023-01-27T21:52:51.742Z,84.54
2023-01-27T21:55:23.426Z,84.43
2023-01-27T21:57:51.883Z,85.00
2023-01-27T22:00:27.426Z,85.39
2023-01-27T22:02:56.106Z,84.85
2023-01-27T22:05:23.444Z,84.82
2023-01-27T22:07:51.623Z,85.12
2023-01-27T22:10:23.409Z,85.42
2023-01-27T22:12:51.116Z,85.40
2023-01-27T22:15:19.715Z,85.70
2023-01-27T22:17:46.533Z,85.32
2023-01-27T22:20:15.627Z,85.27
2023-01-27T22:22:45.566Z,85.20
2023-01-27T22:25:14.722Z,85.06
2023-01-27T22:27:42.635Z,84.75
2023-01-27T22:30:16.400Z,84.80
2023-01-27T22:32:43.706Z,84.90
2023-01-27T22:35:12.824Z,85.00
2023-01-27T22:37:39.878Z,84.74
2023-01-27T22:40:07.714Z,85.84
2023-01-27T22:42:34.993Z,85.64
2023-01-27T22:45:02.363Z,86.20
2023-01-27T22:47:28.724Z,85.75
2023-01-27T22:49:55.124Z,86.41
2023-01-27T22:52:21.480Z,86.36
2023-01-27T22:54:48.056Z,86.08
2023-01-27T22:57:14.425Z,86.62
2023-01-27T22:59:40.802Z,87.14
2023-01-27T23:02:07.321Z,87.04
2023-01-27T23:04:33.956Z,86.09
2023-01-27T23:07:00.931Z,86.23
2023-01-27T23:09:27.331Z,85.79
2023-01-27T23:11:53.721Z,85.57
2023-01-27T23:14:20.429Z,85.64
2023-01-27T23:16:46.955Z,86.26
2023-01-27T23:19:13.412Z,86.64
2023-01-27T23:21:39.785Z,86.62
2023-01-27T23:24:07.753Z,86.46
2023-01-27T23:26:34.444Z,86.26
2023-01-27T23:29:00.861Z,86.39
2023-01-27T23:31:27.351Z,85.98
2023-01-27T23:33:54.001Z,85.36
2023-01-27T23:36:20.415Z,85.02
2023-01-27T23:38:47.416Z,85.24
2023-01-27T23:41:18.138Z,85.86
2023-01-27T23:43:49.942Z,85.39
2023-01-27T23:46:16.363Z,85.14
2023-01-27T23:48:42.733Z,85.79
2023-01-27T23:51:10.543Z,84.67
2023-01-27T23:53:36.980Z,84.77
2023-01-27T23:56:04.407Z,84.15
2023-01-27T23:58:30.835Z,85.09
